createdAt,value
2022-11-18T00:02:15.012Z,69.41
2022-11-18T00:04:42.030Z,69.30
2022-11-18T00:07:08.712Z,69.37
2022-11-18T00:09:37.792Z,69.36
2022-11-18T00:12:23.336Z,69.40
2022-11-18T00:14:49.857Z,69.42
2022-11-18T00:17:16.439Z,69.44
2022-11-18T00:19:45.511Z,69.36
2022-11-18T00:22:12.548Z,69.31
2022-11-18T00:24:39.160Z,69.30
2022-11-18T00:27:08.087Z,69.41
2022-11-18T00:29:34.667Z,69.65
2022-11-18T00:32:01.286Z,69.52
2022-11-18T00:34:27.934Z,69.75
2022-11-18T00:36:54.464Z,69.64
2022-11-18T00:39:24.182Z,69.83
2022-11-18T00:42:09.936Z,69.87
2022-11-18T00:44:41.595Z,69.72
2022-11-18T00:47:08.198Z,69.84
2022-11-18T00:49:34.765Z,69.80
2022-11-18T00:52:01.947Z,69.55
2022-11-18T00:54:28.496Z,69.69
2022-11-18T00:56:55.080Z,69.57
2022-11-18T00:59:24.261Z,69.68
2022-11-18T01:01:53.063Z,69.92
2022-11-18T01:04:23.789Z,69.79
2022-11-18T01:06:52.880Z,69.87
2022-11-18T01:09:21.918Z,69.69
2022-11-18T01:12:07.335Z,69.71
2022-11-18T01:14:34.153Z,70.29
2022-11-18T01:17:00.726Z,71.48
2022-11-18T01:19:27.488Z,73.24
2022-11-18T01:21:54.111Z,74.10
2022-11-18T01:24:20.648Z,74.32
2022-11-18T01:26:47.200Z,74.27
2022-11-18T01:29:13.768Z,73.70
2022-11-18T01:31:55.617Z,73.14
2022-11-18T01:34:27.908Z,72.53
2022-11-18T01:36:54.520Z,72.17
2022-11-18T01:39:25.854Z,71.64
2022-11-18T01:41:52.528Z,71.58
2022-11-18T01:44:37.874Z,71.17
2022-11-18T01:47:04.474Z,70.84
2022-11-18T01:49:33.435Z,70.51
2022-11-18T01:52:00.084Z,70.50
2022-11-18T01:54:33.812Z,70.52
2022-11-18T01:57:04.089Z,70.55
2022-11-18T01:59:31.517Z,71.47
2022-11-18T02:01:59.777Z,71.53
2022-11-18T02:04:27.017Z,71.26
2022-11-18T02:06:56.073Z,71.33
2022-11-18T02:09:22.764Z,71.10
2022-11-18T02:11:54.043Z,71.06
2022-11-18T02:14:21.736Z,71.01
2022-11-18T02:16:57.503Z,70.91
2022-11-18T02:19:36.863Z,70.95
2022-11-18T02:22:06.494Z,70.74
2022-11-18T02:24:42.625Z,70.76
2022-11-18T02:27:09.102Z,70.79
2022-11-18T02:29:45.834Z,70.60
2022-11-18T02:32:14.426Z,70.40
2022-11-18T02:34:47.028Z,70.46
2022-11-18T02:37:48.763Z,70.29
2022-11-18T02:40:24.328Z,70.33
2022-11-18T02:42:55.607Z,70.63
2022-11-18T02:45:22.255Z,70.81
2022-11-18T02:47:48.865Z,70.95
2022-11-18T02:50:16.673Z,70.77
2022-11-18T02:52:48.193Z,70.49
2022-11-18T02:55:15.407Z,70.52
2022-11-18T02:57:42.385Z,70.26
2022-11-18T03:00:09.380Z,70.25
2022-11-18T03:02:42.256Z,70.26
2022-11-18T03:05:10.034Z,69.88
2022-11-18T03:07:36.779Z,69.84
2022-11-18T03:10:05.764Z,69.76
2022-11-18T03:12:51.172Z,70.31
2022-11-18T03:15:26.955Z,70.54
2022-11-18T03:17:53.448Z,70.53
2022-11-18T03:20:22.207Z,70.62
2022-11-18T03:23:01.203Z,70.48
2022-11-18T03:25:46.466Z,70.34
2022-11-18T03:28:18.019Z,70.14
2022-11-18T03:30:53.136Z,69.85
2022-11-18T03:33:20.759Z,69.68
2022-11-18T03:35:48.017Z,69.79
2022-11-18T03:38:18.592Z,69.24
2022-11-18T03:40:52.076Z,69.84
2022-11-18T03:43:29.465Z,70.44
2022-11-18T03:45:57.739Z,71.14
2022-11-18T03:48:25.762Z,72.08
2022-11-18T03:51:02.175Z,73.92
2022-11-18T03:53:29.160Z,74.16
2022-11-18T03:55:58.255Z,74.53
2022-11-18T03:58:26.747Z,75.21
2022-11-18T04:01:01.343Z,74.89
2022-11-18T04:03:30.070Z,74.27
2022-11-18T04:05:59.622Z,73.85
2022-11-18T04:08:27.535Z,73.94
2022-11-18T04:10:55.678Z,73.21
2022-11-18T04:13:26.413Z,72.69
2022-11-18T04:15:53.323Z,72.55
2022-11-18T04:18:19.867Z,72.30
2022-11-18T04:20:46.462Z,71.96
2022-11-18T04:23:13.094Z,71.72
2022-11-18T04:25:39.623Z,71.56
2022-11-18T04:28:08.668Z,71.26
2022-11-18T04:30:37.359Z,70.97
2022-11-18T04:33:04.060Z,70.79
2022-11-18T04:35:33.099Z,70.56
2022-11-18T04:37:59.677Z,70.40
2022-11-18T04:40:26.244Z,70.21
2022-11-18T04:42:55.799Z,70.00
2022-11-18T04:45:24.985Z,69.51
2022-11-18T04:47:57.638Z,69.85
2022-11-18T04:50:27.005Z,69.88
2022-11-18T04:52:53.580Z,70.02
2022-11-18T04:55:22.652Z,69.97
2022-11-18T04:57:49.254Z,69.91
2022-11-18T05:00:16.117Z,70.13
2022-11-18T05:02:42.681Z,70.13
2022-11-18T05:05:09.285Z,70.06
2022-11-18T05:07:36.100Z,69.97
2022-11-18T05:10:02.712Z,70.04
2022-11-18T05:12:48.135Z,70.00
2022-11-18T05:15:18.047Z,70.00
2022-11-18T05:17:44.709Z,70.18
2022-11-18T05:20:11.404Z,69.99
2022-11-18T05:22:43.006Z,70.14
2022-11-18T05:25:14.161Z,69.99
2022-11-18T05:27:40.697Z,69.92
2022-11-18T05:30:07.507Z,70.03
2022-11-18T05:32:34.099Z,70.23
2022-11-18T05:35:00.655Z,70.10
2022-11-18T05:37:27.212Z,70.17
2022-11-18T05:39:53.736Z,70.10
2022-11-18T05:42:39.071Z,70.00
2022-11-18T05:45:08.228Z,69.69
2022-11-18T05:47:54.756Z,70.07
2022-11-18T05:50:23.992Z,70.21
2022-11-18T05:52:52.838Z,70.40
2022-11-18T05:55:19.416Z,70.88
2022-11-18T05:57:47.983Z,70.83
2022-11-18T06:00:17.370Z,70.85
2022-11-18T06:02:46.639Z,70.45
2022-11-18T06:05:13.228Z,70.56
2022-11-18T06:07:41.439Z,70.33
2022-11-18T06:10:08.380Z,70.23
2022-11-18T06:12:38.311Z,70.16
2022-11-18T06:15:23.999Z,70.22
2022-11-18T06:17:52.295Z,70.44
2022-11-18T06:20:19.410Z,70.61
2022-11-18T06:22:46.799Z,70.81
2022-11-18T06:25:13.549Z,71.15
2022-11-18T06:27:40.109Z,71.49
2022-11-18T06:30:09.986Z,71.77
2022-11-18T06:32:36.559Z,71.83
2022-11-18T06:35:03.204Z,71.75
2022-11-18T06:37:29.790Z,71.97
2022-11-18T06:39:58.763Z,72.10
2022-11-18T06:42:46.704Z,72.27
2022-11-18T06:45:13.365Z,72.14
2022-11-18T06:47:40.408Z,71.91
2022-11-18T06:50:07.155Z,72.05
2022-11-18T06:52:33.736Z,72.18
2022-11-18T06:55:00.364Z,72.12
2022-11-18T06:57:29.357Z,71.90
2022-11-18T07:00:02.035Z,71.79
2022-11-18T07:02:31.703Z,71.70
2022-11-18T07:04:58.300Z,71.81
2022-11-18T07:07:24.879Z,71.88
2022-11-18T07:09:58.582Z,71.65
2022-11-18T07:12:25.107Z,71.69
2022-11-18T07:14:51.737Z,71.57
2022-11-18T07:17:18.865Z,71.43
2022-11-18T07:19:45.435Z,71.28
2022-11-18T07:22:12.004Z,70.99
2022-11-18T07:24:38.574Z,70.95
2022-11-18T07:27:05.119Z,70.86
2022-11-18T07:29:34.664Z,70.66
2022-11-18T07:32:04.098Z,70.52
2022-11-18T07:34:33.217Z,70.17
2022-11-18T07:36:59.791Z,70.06
2022-11-18T07:39:31.327Z,69.83
2022-11-18T07:41:58.195Z,69.75
2022-11-18T07:44:25.017Z,69.56
2022-11-18T07:46:51.755Z,69.52
2022-11-18T07:49:21.077Z,69.34
2022-11-18T07:51:52.827Z,69.10
2022-11-18T07:54:24.222Z,69.03
2022-11-18T07:56:53.526Z,68.90
2022-11-18T07:59:20.491Z,68.71
2022-11-18T08:01:47.471Z,68.64
2022-11-18T08:04:14.209Z,68.51
2022-11-18T08:06:43.192Z,68.30
2022-11-18T08:09:09.943Z,68.19
2022-11-18T08:11:36.662Z,67.94
2022-11-18T08:14:03.280Z,68.14
2022-11-18T08:16:29.813Z,68.31
2022-11-18T08:18:56.554Z,68.83
2022-11-18T08:21:23.254Z,68.50
2022-11-18T08:23:55.960Z,68.64
2022-11-18T08:26:23.055Z,69.28
2022-11-18T08:28:52.153Z,69.42
2022-11-18T08:31:22.771Z,69.65
2022-11-18T08:33:53.862Z,69.54
2022-11-18T08:36:24.023Z,69.55
2022-11-18T08:38:53.498Z,70.03
2022-11-18T08:41:21.683Z,70.45
2022-11-18T08:43:50.887Z,70.36
2022-11-18T08:46:17.447Z,70.45
2022-11-18T08:48:44.024Z,70.11
2022-11-18T08:51:11.254Z,69.96
2022-11-18T08:53:40.266Z,70.11
2022-11-18T08:56:07.386Z,69.99
2022-11-18T08:58:33.964Z,69.73
2022-11-18T09:01:07.056Z,69.53
2022-11-18T09:03:35.854Z,69.55
2022-11-18T09:06:07.328Z,69.27
2022-11-18T09:08:33.986Z,69.19
2022-11-18T09:11:04.662Z,69.05
2022-11-18T09:14:14.383Z,69.12
2022-11-18T09:16:28.199Z,68.76
2022-11-18T09:18:57.669Z,68.94
2022-11-18T09:21:27.022Z,68.96
2022-11-18T09:23:58.312Z,69.34
2022-11-18T09:26:25.032Z,69.21
2022-11-18T09:28:54.892Z,69.45
2022-11-18T09:31:21.477Z,69.39
2022-11-18T09:33:48.013Z,69.28
2022-11-18T09:36:14.577Z,69.30
2022-11-18T09:38:41.422Z,69.37
2022-11-18T09:41:11.598Z,69.19
2022-11-18T09:43:56.819Z,69.34
2022-11-18T09:46:23.437Z,69.31
2022-11-18T09:49:08.644Z,69.44
2022-11-18T09:51:38.411Z,69.57
2022-11-18T09:54:05.043Z,69.29
2022-11-18T09:56:31.705Z,69.63
2022-11-18T09:59:00.831Z,68.99
2022-11-18T10:01:29.740Z,69.13
2022-11-18T10:03:58.700Z,69.20
2022-11-18T10:06:26.678Z,69.16
2022-11-18T10:09:13.946Z,69.19
2022-11-18T10:11:44.210Z,69.02
2022-11-18T10:14:25.188Z,68.83
2022-11-18T10:17:07.145Z,68.71
2022-11-18T10:19:38.935Z,68.29
2022-11-18T10:22:24.966Z,68.42
2022-11-18T10:24:52.764Z,68.37
2022-11-18T10:27:19.390Z,68.43
2022-11-18T10:29:53.188Z,68.32
2022-11-18T10:32:22.231Z,68.40
2022-11-18T10:35:11.905Z,68.33
2022-11-18T10:38:06.377Z,68.32
2022-11-18T10:40:28.655Z,68.35
2022-11-18T10:42:55.351Z,68.11
2022-11-18T10:45:25.194Z,68.04
2022-11-18T10:47:58.196Z,68.04
2022-11-18T10:50:29.039Z,68.16
2022-11-18T10:52:55.603Z,68.16
2022-11-18T10:55:30.610Z,67.98
2022-11-18T10:57:58.746Z,67.98
2022-11-18T11:00:34.521Z,67.99
2022-11-18T11:03:01.311Z,68.18
2022-11-18T11:05:30.112Z,68.12
2022-11-18T11:08:29.219Z,68.02
2022-11-18T11:10:56.876Z,67.97
2022-11-18T11:13:27.397Z,67.87
2022-11-18T11:15:55.175Z,68.11
2022-11-18T11:18:40.985Z,68.25
2022-11-18T11:21:17.627Z,68.12
2022-11-18T11:23:47.021Z,68.31
2022-11-18T11:29:49.830Z,68.41
2022-11-18T11:32:34.811Z,68.81
2022-11-18T11:35:07.491Z,69.32
2022-11-18T11:37:42.650Z,70.60
2022-11-18T11:40:41.914Z,71.21
2022-11-18T11:43:26.983Z,71.20
2022-11-18T11:45:56.587Z,71.78
2022-11-18T11:48:35.844Z,72.80
2022-11-18T11:51:05.584Z,73.50
2022-11-18T11:53:53.199Z,73.98
2022-11-18T11:56:25.838Z,74.44
2022-11-18T11:59:02.964Z,74.54
2022-11-18T12:01:29.488Z,75.01
2022-11-18T12:04:02.315Z,74.20
2022-11-18T12:06:28.866Z,75.48
2022-11-18T12:09:12.206Z,75.95
2022-11-18T12:11:44.335Z,76.91
2022-11-18T12:14:13.055Z,77.27
2022-11-18T12:16:52.657Z,77.82
2022-11-18T12:19:22.511Z,78.42
2022-11-18T12:21:53.187Z,78.37
2022-11-18T12:24:20.663Z,77.04
2022-11-18T12:26:47.878Z,78.20
2022-11-18T12:29:22.409Z,78.06
2022-11-18T12:31:50.592Z,78.35
2022-11-18T12:34:30.840Z,79.37
2022-11-18T12:36:57.499Z,79.35
2022-11-18T12:39:27.330Z,79.96
2022-11-18T12:42:19.485Z,80.21
2022-11-18T12:44:50.047Z,79.27
2022-11-18T12:47:37.400Z,78.67
2022-11-18T12:50:08.145Z,79.77
2022-11-18T12:52:35.845Z,79.15
2022-11-18T12:55:05.000Z,79.89
2022-11-18T12:57:34.030Z,80.95
2022-11-18T13:00:19.213Z,80.98
2022-11-18T13:02:55.920Z,81.37
2022-11-18T13:05:23.908Z,81.67
2022-11-18T13:08:15.074Z,80.69
2022-11-18T13:11:14.713Z,79.96
2022-11-18T13:13:41.721Z,79.41
2022-11-18T13:16:38.281Z,79.35
2022-11-18T13:19:07.371Z,79.92
2022-11-18T13:21:52.971Z,78.75
2022-11-18T13:24:21.012Z,78.59
2022-11-18T13:26:48.279Z,80.08
2022-11-18T13:29:26.979Z,79.18
2022-11-18T13:31:57.243Z,78.69
2022-11-18T13:34:27.021Z,80.01
2022-11-18T13:36:54.392Z,80.91
2022-11-18T13:39:24.073Z,81.00
2022-11-18T13:42:03.209Z,81.09
2022-11-18T13:44:36.892Z,80.69
2022-11-18T13:47:16.998Z,80.84
2022-11-18T13:49:50.563Z,80.84
2022-11-18T13:52:37.958Z,80.99
2022-11-18T13:55:13.666Z,80.14
2022-11-18T13:57:42.696Z,79.43
2022-11-18T14:00:18.537Z,78.95
2022-11-18T14:02:46.434Z,79.98
2022-11-18T14:05:21.258Z,79.99
2022-11-18T14:07:55.773Z,80.14
2022-11-18T14:10:29.159Z,80.08
2022-11-18T14:13:00.068Z,80.35
2022-11-18T14:15:32.433Z,80.04
2022-11-18T14:17:59.623Z,79.56
2022-11-18T14:20:26.821Z,79.38
2022-11-18T14:22:54.774Z,79.19
2022-11-18T14:25:24.297Z,79.27
2022-11-18T14:27:52.056Z,79.14
2022-11-18T14:30:25.977Z,78.96
2022-11-18T14:33:11.381Z,78.64
2022-11-18T14:35:38.444Z,78.01
2022-11-18T14:41:01.563Z,77.59
2022-11-18T14:43:28.262Z,77.46
2022-11-18T14:46:15.076Z,76.76
2022-11-18T14:48:41.617Z,77.41
2022-11-18T14:51:11.650Z,77.67
2022-11-18T14:53:40.840Z,76.52
2022-11-18T14:56:15.270Z,77.38
2022-11-18T14:58:41.843Z,77.09
2022-11-18T15:01:10.078Z,76.56
2022-11-18T15:03:39.105Z,77.34
2022-11-18T15:06:14.878Z,77.18
2022-11-18T15:08:42.928Z,77.67
2022-11-18T15:11:09.659Z,77.94
2022-11-18T15:13:38.899Z,77.92
2022-11-18T15:16:16.052Z,77.77
2022-11-18T15:18:43.310Z,77.40
2022-11-18T15:21:10.074Z,77.36
2022-11-18T15:23:36.912Z,76.24
2022-11-18T15:26:06.307Z,76.54
2022-11-18T15:28:35.251Z,76.92
2022-11-18T15:31:01.911Z,76.81
2022-11-18T15:33:30.784Z,76.32
2022-11-18T15:35:59.678Z,75.42
2022-11-18T15:38:28.568Z,76.66
2022-11-18T15:40:55.143Z,77.21
2022-11-18T15:43:24.727Z,77.03
2022-11-18T15:45:57.109Z,77.10
2022-11-18T15:48:23.732Z,77.59
2022-11-18T15:50:54.353Z,77.27
2022-11-18T15:53:21.060Z,76.90
2022-11-18T15:55:47.601Z,76.39
2022-11-18T15:58:17.283Z,76.41
2022-11-18T16:00:46.784Z,76.52
2022-11-18T16:03:16.933Z,76.61
2022-11-18T16:05:43.531Z,76.69
2022-11-18T16:08:10.117Z,76.30
2022-11-18T16:10:55.225Z,75.97
2022-11-18T16:13:24.213Z,76.38
2022-11-18T16:15:50.831Z,76.10
2022-11-18T16:18:19.563Z,75.84
2022-11-18T16:20:46.177Z,76.17
2022-11-18T16:23:15.255Z,75.76
2022-11-18T16:25:46.273Z,75.80
2022-11-18T16:28:12.938Z,75.89
2022-11-18T16:30:58.072Z,76.21
2022-11-18T16:33:26.962Z,76.45
2022-11-18T16:35:56.106Z,76.53
2022-11-18T16:38:22.631Z,76.06
2022-11-18T16:40:54.815Z,76.05
2022-11-18T16:43:21.431Z,76.33
2022-11-18T16:45:53.767Z,75.67
2022-11-18T16:48:21.120Z,76.20
2022-11-18T16:51:20.130Z,75.50
2022-11-18T16:53:51.023Z,76.05
2022-11-18T16:56:20.217Z,75.15
2022-11-18T16:58:46.891Z,75.13
2022-11-18T17:01:20.035Z,76.27
2022-11-18T17:03:52.155Z,75.79
2022-11-18T17:06:21.293Z,73.58
2022-11-18T17:08:47.836Z,74.25
2022-11-18T17:11:16.925Z,75.37
2022-11-18T17:13:44.015Z,74.79
2022-11-18T17:16:20.088Z,75.08
2022-11-18T17:18:46.873Z,76.69
2022-11-18T17:21:21.173Z,75.65
2022-11-18T17:23:48.349Z,76.94
2022-11-18T17:26:16.068Z,76.80
2022-11-18T17:28:42.647Z,76.72
2022-11-18T17:31:16.595Z,77.31
2022-11-18T17:33:43.501Z,76.58
2022-11-18T17:36:13.485Z,75.40
2022-11-18T17:38:40.770Z,74.34
2022-11-18T17:41:08.061Z,75.42
2022-11-18T17:43:34.685Z,75.78
2022-11-18T17:46:02.964Z,76.37
2022-11-18T17:48:32.119Z,76.71
2022-11-18T17:51:07.301Z,77.21
2022-11-18T17:53:33.854Z,76.75
2022-11-18T17:56:03.930Z,76.57
2022-11-18T17:58:33.770Z,76.19
2022-11-18T18:01:10.275Z,76.30
2022-11-18T18:03:36.879Z,75.96
2022-11-18T18:06:06.926Z,75.89
2022-11-18T18:08:36.537Z,74.82
2022-11-18T18:11:09.641Z,73.60
2022-11-18T18:13:58.013Z,73.67
2022-11-18T18:16:24.994Z,74.95
2022-11-18T18:18:51.690Z,74.78
2022-11-18T18:21:18.269Z,75.38
2022-11-18T18:23:45.524Z,74.94
2022-11-18T18:26:12.298Z,75.56
2022-11-18T18:28:40.372Z,76.27
2022-11-18T18:31:10.472Z,76.57
2022-11-18T18:33:37.305Z,76.51
2022-11-18T18:36:07.196Z,75.96
2022-11-18T18:38:37.215Z,76.72
2022-11-18T18:41:04.497Z,77.42
2022-11-18T18:43:31.088Z,78.38
2022-11-18T18:46:23.464Z,78.22
2022-11-18T18:48:50.094Z,77.28
2022-11-18T18:51:17.260Z,76.83
2022-11-18T18:53:43.776Z,77.38
2022-11-18T18:56:10.463Z,76.67
2022-11-18T18:58:37.553Z,77.37
2022-11-18T19:01:07.446Z,77.28
2022-11-18T19:03:38.956Z,76.59
2022-11-18T19:06:47.409Z,77.20
2022-11-18T19:09:04.376Z,77.24
2022-11-18T19:11:49.798Z,77.04
2022-11-18T19:14:18.251Z,77.17
2022-11-18T19:16:48.122Z,77.38
2022-11-18T19:19:16.643Z,77.68
2022-11-18T19:21:50.022Z,76.43
2022-11-18T19:24:42.397Z,77.14
2022-11-18T19:27:03.456Z,77.75
2022-11-18T19:29:30.034Z,77.62
2022-11-18T19:31:56.687Z,77.90
2022-11-18T19:34:23.269Z,77.68
2022-11-18T19:36:50.204Z,78.10
2022-11-18T19:39:17.021Z,78.04
2022-11-18T19:41:45.803Z,78.74
2022-11-18T19:44:12.383Z,79.28
2022-11-18T19:46:39.079Z,78.85
2022-11-18T19:49:05.576Z,78.50
2022-11-18T19:51:32.854Z,78.63
2022-11-18T19:53:59.906Z,78.76
2022-11-18T19:56:29.453Z,78.64
2022-11-18T19:58:56.160Z,79.49
2022-11-18T20:01:23.810Z,78.48
2022-11-18T20:03:54.644Z,78.63
2022-11-18T20:06:24.806Z,78.55
2022-11-18T20:08:51.603Z,78.91
2022-11-18T20:11:18.771Z,79.49
2022-11-18T20:13:45.469Z,79.76
2022-11-18T20:16:13.027Z,79.99
2022-11-18T20:18:40.512Z,79.80
2022-11-18T20:21:08.167Z,79.66
2022-11-18T20:23:37.442Z,79.53
2022-11-18T20:26:11.840Z,79.62
2022-11-18T20:28:38.837Z,80.13
2022-11-18T20:31:05.813Z,79.61
2022-11-18T20:33:36.100Z,80.07
2022-11-18T20:36:05.779Z,80.95
2022-11-18T20:38:32.575Z,79.90
2022-11-18T20:41:05.548Z,79.57
2022-11-18T20:43:35.377Z,79.51
2022-11-18T20:46:02.466Z,80.79
2022-11-18T20:48:29.504Z,80.45
2022-11-18T20:51:06.291Z,79.81
2022-11-18T20:53:38.892Z,80.83
2022-11-18T20:56:06.165Z,80.30
2022-11-18T20:58:33.100Z,80.17
2022-11-18T21:01:09.482Z,80.15
2022-11-18T21:03:36.667Z,81.41
2022-11-18T21:06:12.371Z,80.00
2022-11-18T21:08:40.880Z,80.46
2022-11-18T21:11:11.557Z,80.19
2022-11-18T21:13:56.807Z,79.41
2022-11-18T21:16:26.230Z,77.96
2022-11-18T21:18:54.987Z,78.23
2022-11-18T21:21:40.466Z,77.51
2022-11-18T21:24:07.314Z,78.23
2022-11-18T21:26:34.708Z,76.84
2022-11-18T21:29:04.789Z,77.13
2022-11-18T21:31:36.315Z,78.76
2022-11-18T21:34:03.051Z,78.63
2022-11-18T21:36:29.998Z,79.27
2022-11-18T21:38:57.055Z,78.15
2022-11-18T21:41:26.101Z,78.89
2022-11-18T21:44:07.941Z,79.53
2022-11-18T21:46:34.964Z,78.70
2022-11-18T21:49:03.991Z,78.29
2022-11-18T21:51:33.493Z,77.72
2022-11-18T21:54:12.669Z,76.47
2022-11-18T21:56:44.780Z,76.53
2022-11-18T21:59:11.310Z,76.95
2022-11-18T22:01:37.901Z,77.28
2022-11-18T22:04:07.202Z,76.71
2022-11-18T22:06:34.434Z,76.41
2022-11-18T22:09:01.519Z,76.36
2022-11-18T22:11:28.421Z,75.58
2022-11-18T22:13:58.023Z,74.14
2022-11-18T22:16:27.111Z,74.28
2022-11-18T22:19:01.173Z,74.81
2022-11-18T22:21:30.482Z,73.91
2022-11-18T22:24:03.004Z,73.73
2022-11-18T22:26:29.585Z,75.09
2022-11-18T22:28:58.886Z,74.16
2022-11-18T22:31:26.380Z,72.60
2022-11-18T22:33:55.986Z,74.08
2022-11-18T22:36:23.377Z,72.90
2022-11-18T22:38:50.167Z,73.06
2022-11-18T22:41:37.293Z,73.21
2022-11-18T22:44:07.640Z,72.50
2022-11-18T22:46:38.062Z,73.00
2022-11-18T22:49:05.002Z,72.40
2022-11-18T22:51:31.669Z,73.26
2022-11-18T22:54:22.875Z,73.36
2022-11-18T22:56:44.762Z,73.39
2022-11-18T22:59:16.278Z,73.62
2022-11-18T23:01:43.745Z,73.13
2022-11-18T23:04:15.465Z,73.16
2022-11-18T23:06:42.062Z,73.40
2022-11-18T23:09:11.608Z,73.78
2022-11-18T23:11:56.819Z,74.65
2022-11-18T23:14:23.456Z,74.75
2022-11-18T23:16:54.637Z,74.80
2022-11-18T23:19:23.755Z,74.78
2022-11-18T23:21:55.236Z,74.39
2022-11-18T23:24:21.958Z,73.21
2022-11-18T23:26:51.092Z,74.21
2022-11-18T23:29:18.123Z,73.52
2022-11-18T23:31:47.800Z,72.54
2022-11-18T23:34:17.236Z,72.88
2022-11-18T23:36:43.950Z,72.86
2022-11-18T23:39:10.672Z,73.21
2022-11-18T23:41:39.775Z,72.86
2022-11-18T23:44:06.576Z,73.02
2022-11-18T23:46:36.035Z,71.34
2022-11-18T23:49:10.830Z,70.49
2022-11-18T23:51:37.365Z,71.20
2022-11-18T23:54:03.999Z,70.87
2022-11-18T23:56:37.788Z,72.03
2022-11-18T23:59:05.080Z,70.52
